Time;durP1;ratioP1;P1;durP2;ratioP2;P2;SDS_P1;SDS_P2;PMS_P1;PMS_P2;Temp;Humidity;BMP_temperature;BMP_pressure;BME280_temperature;BME280_humidity;BME280_pressure;Samples;Min_cycle;Max_cycle;Signal;HPM_P1;HPM_P2
2021/12/20 04:43:35;;;;;;;6.30;3.70;;;;;;;1.02;98.33;100351.69;5379576;31;20126;-83
2021/12/20 04:46:38;;;;;;;4.85;3.97;;;;;;;1.02;98.31;100359.66;5398021;32;33804;-83
2021/12/20 04:49:40;;;;;;;6.22;3.70;;;;;;;0.97;98.38;100362.66;5397466;33;33091;-83
2021/12/20 04:52:43;;;;;;;4.30;3.90;;;;;;;0.96;98.46;100365.44;5397766;33;33376;-81
2021/12/20 04:55:46;;;;;;;5.87;3.87;;;;;;;0.97;97.77;100362.66;5398775;32;33151;-82
2021/12/20 04:58:49;;;;;;;4.53;3.85;;;;;;;0.99;96.96;100355.44;5398325;33;33867;-82
2021/12/20 05:01:51;;;;;;;5.03;4.50;;;;;;;0.90;97.27;100361.44;5398272;33;33952;-82
2021/12/20 05:04:54;;;;;;;7.32;3.95;;;;;;;0.92;97.35;100375.41;5404659;33;33787;-82
2021/12/20 05:07:57;;;;;;;7.80;4.28;;;;;;;1.00;96.29;100373.03;5413896;32;35673;-82
2021/12/20 05:11:04;;;;;;;6.00;4.57;;;;;;;0.94;96.49;100365.56;5410003;33;33527;-82
2021/12/20 05:14:06;;;;;;;7.75;4.62;;;;;;;0.88;96.42;100363.38;5402748;33;33553;-82
2021/12/20 05:17:12;;;;;;;6.40;4.68;;;;;;;0.81;96.73;100370.09;5397385;32;34607;-82
2021/12/20 05:20:15;;;;;;;7.30;5.07;;;;;;;0.79;96.70;100375.50;5397222;33;33523;-82
2021/12/20 05:23:18;;;;;;;6.20;5.07;;;;;;;0.81;96.14;100383.34;5397399;33;34873;-82
2021/12/20 05:26:20;;;;;;;6.43;4.70;;;;;;;0.73;95.93;100378.59;5397155;33;33241;-82
2021/12/20 05:29:24;;;;;;;7.03;5.75;;;;;;;0.67;95.63;100377.28;5397998;33;33028;-82
2021/12/20 05:32:27;;;;;;;7.32;4.30;;;;;;;0.66;94.91;100396.75;5400373;33;33524;-81
2021/12/20 05:35:30;;;;;;;5.35;3.97;;;;;;;0.78;94.45;100399.47;5399465;33;33470;-82
2021/12/20 05:38:33;;;;;;;8.55;4.53;;;;;;;0.79;93.73;100386.13;5399067;33;34308;-82
2021/12/20 05:41:36;;;;;;;5.75;3.97;;;;;;;0.63;93.51;100391.69;5400359;32;34475;-82
2021/12/20 05:44:54;;;;;;;7.32;4.10;;;;;;;0.59;93.72;100387.59;5416759;32;33120;-83
2021/12/20 05:47:57;;;;;;;5.80;4.12;;;;;;;0.62;93.19;100391.81;5413520;32;32967;-83
2021/12/20 05:51:00;;;;;;;5.85;4.15;;;;;;;0.53;93.23;100393.34;5414187;32;33453;-82
2021/12/20 05:54:03;;;;;;;4.18;3.78;;;;;;;0.56;92.93;100408.16;5407562;32;34278;-82
2021/12/20 05:57:05;;;;;;;5.85;4.03;;;;;;;0.52;92.69;100398.75;5408623;32;35211;-82
2021/12/20 06:00:12;;;;;;;5.85;3.85;;;;;;;0.57;92.29;100393.97;5412015;32;33403;-82
2021/12/20 06:03:20;;;;;;;6.47;3.92;;;;;;;0.59;91.39;100397.34;5407134;32;33649;-82
2021/12/20 06:06:23;;;;;;;7.35;4.15;;;;;;;0.60;90.24;100413.13;5405927;32;34047;-82
2021/12/20 06:09:27;;;;;;;4.35;3.62;;;;;;;0.60;89.36;100410.47;5408384;32;33692;-82
2021/12/20 06:12:29;;;;;;;5.15;3.58;;;;;;;0.65;88.56;100426.87;5408212;32;33413;-82
2021/12/20 06:15:32;;;;;;;4.50;3.67;;;;;;;0.65;86.93;100426.03;5408114;32;33709;-83
2021/12/20 06:18:35;;;;;;;7.03;4.03;;;;;;;0.70;86.96;100420.37;5405639;32;33061;-82
2021/12/20 06:21:38;;;;;;;8.85;3.80;;;;;;;0.65;86.27;100432.16;5407471;32;33890;-82
2021/12/20 06:24:40;;;;;;;8.00;4.03;;;;;;;0.53;86.76;100429.59;5403258;32;33643;-82
2021/12/20 06:27:43;;;;;;;5.72;4.30;;;;;;;0.54;86.25;100434.75;5399895;32;33181;-82
2021/12/20 06:30:47;;;;;;;6.20;3.97;;;;;;;0.53;86.24;100438.38;5403907;32;33714;-82
2021/12/20 06:33:50;;;;;;;4.85;3.50;;;;;;;0.45;86.19;100444.22;5401916;32;33685;-82
2021/12/20 06:36:53;;;;;;;5.45;3.90;;;;;;;0.55;84.84;100447.03;5406847;32;33804;-82
2021/12/20 06:39:56;;;;;;;5.30;3.85;;;;;;;0.64;83.67;100456.12;5415034;32;33648;-82
2021/12/20 06:42:59;;;;;;;3.78;3.00;;;;;;;0.68;82.06;100466.38;5414548;32;34693;-82
2021/12/20 06:46:02;;;;;;;5.97;3.70;;;;;;;0.67;81.91;100461.19;5411635;32;32995;-82
2021/12/20 06:49:09;;;;;;;3.65;3.03;;;;;;;0.61;81.48;100456.34;5409355;32;33160;-82
2021/12/20 06:52:12;;;;;;;3.55;3.10;;;;;;;0.70;80.20;100465.41;5416999;32;33969;-82
2021/12/20 06:55:15;;;;;;;6.55;3.45;;;;;;;0.76;80.06;100476.44;5416953;32;34913;-82
2021/12/20 06:58:18;;;;;;;3.10;2.78;;;;;;;0.88;79.00;100474.69;5414167;32;33128;-82
2021/12/20 07:01:21;;;;;;;5.55;2.83;;;;;;;0.92;77.22;100473.50;5416756;32;33094;-82
2021/12/20 07:04:23;;;;;;;3.87;3.05;;;;;;;0.96;77.10;100464.34;5416026;32;34815;-82
2021/12/20 07:07:28;;;;;;;5.65;2.90;;;;;;;1.06;76.64;100460.06;5416427;32;34846;-82
2021/12/20 07:10:31;;;;;;;8.57;3.42;;;;;;;1.11;75.86;100470.31;5414709;32;33662;-82
2021/12/20 07:13:34;;;;;;;5.75;2.95;;;;;;;1.23;75.48;100474.72;5414312;32;34255;-82
2021/12/20 07:16:40;;;;;;;4.80;3.05;;;;;;;1.35;75.12;100484.37;5407026;32;34159;-81
2021/12/20 07:19:42;;;;;;;4.97;3.20;;;;;;;1.45;74.82;100476.56;5419533;32;34092;-81
2021/12/20 07:22:45;;;;;;;4.32;2.95;;;;;;;1.46;74.67;100474.75;5410516;32;34033;-81
2021/12/20 07:25:49;;;;;;;6.07;3.10;;;;;;;1.64;73.94;100481.31;5407585;32;33410;-82
2021/12/20 07:28:52;;;;;;;3.95;3.20;;;;;;;1.65;73.88;100474.22;5416882;32;33941;-82
2021/12/20 07:31:55;;;;;;;3.72;2.87;;;;;;;1.72;73.54;100467.44;5413757;32;33212;-82
2021/12/20 07:34:58;;;;;;;5.70;3.20;;;;;;;1.84;72.56;100473.59;5406327;32;34469;-82
2021/12/20 07:38:02;;;;;;;7.30;3.00;;;;;;;1.99;71.67;100475.94;5409045;32;33434;-82
2021/12/20 07:41:05;;;;;;;4.55;3.10;;;;;;;2.11;70.90;100476.78;5404867;32;33252;-81
2021/12/20 07:44:08;;;;;;;3.50;3.08;;;;;;;2.24;70.81;100484.59;5403240;32;34029;-82
2021/12/20 07:47:11;;;;;;;7.68;3.42;;;;;;;2.27;70.41;100479.88;5410721;32;33487;-86
2021/12/20 07:50:15;;;;;;;4.05;3.00;;;;;;;2.31;70.62;100491.13;5407132;32;33712;-86
2021/12/20 07:53:18;;;;;;;3.78;3.30;;;;;;;2.36;70.69;100491.59;5407689;32;33506;-86
2021/12/20 07:56:21;;;;;;;4.43;3.17;;;;;;;2.31;71.05;100495.59;5411971;32;35228;-82
2021/12/20 07:59:24;;;;;;;7.43;3.33;;;;;;;2.46;70.76;100505.00;5414095;32;33817;-82
2021/12/20 08:02:27;;;;;;;4.37;3.12;;;;;;;2.60;71.02;100496.75;5396121;32;33505;-82
2021/12/20 08:05:30;;;;;;;7.47;3.37;;;;;;;2.78;70.33;100497.09;5410474;32;34193;-82
2021/12/20 08:08:32;;;;;;;7.03;3.67;;;;;;;2.81;69.95;100501.28;5409210;32;34259;-82
2021/12/20 08:11:35;;;;;;;6.62;3.53;;;;;;;2.75;69.55;100483.19;5412997;32;35055;-83
2021/12/20 08:14:38;;;;;;;5.40;3.50;;;;;;;2.79;69.94;100498.78;5420605;32;34918;-83
2021/12/20 08:17:41;;;;;;;6.82;3.90;;;;;;;2.85;68.82;100500.94;5423803;32;34861;-82
2021/12/20 08:20:43;;;;;;;6.28;3.75;;;;;;;2.96;69.52;100489.44;5426631;32;33776;-82
2021/12/20 08:23:46;;;;;;;4.75;3.45;;;;;;;2.99;68.48;100483.84;5423825;32;33404;-83
2021/12/20 08:26:49;;;;;;;4.75;3.60;;;;;;;2.96;68.04;100484.13;5421791;32;33907;-82
2021/12/20 08:29:52;;;;;;;3.37;3.08;;;;;;;3.00;67.88;100496.16;5430929;32;33894;-83
2021/12/20 08:32:55;;;;;;;4.50;2.90;;;;;;;3.08;67.71;100485.75;5401823;32;33490;-82
2021/12/20 08:36:00;;;;;;;5.07;2.70;;;;;;;3.06;66.71;100478.88;5415270;32;33015;-83
2021/12/20 08:39:04;;;;;;;3.83;2.37;;;;;;;3.10;65.59;100477.63;5407631;32;34889;-83
2021/12/20 08:42:07;;;;;;;6.12;2.70;;;;;;;3.18;63.87;100491.13;5408853;32;33659;-82
2021/12/20 08:45:12;;;;;;;4.53;2.45;;;;;;;3.28;63.45;100508.03;5411464;32;33430;-82
2021/12/20 08:48:19;;;;;;;3.42;2.60;;;;;;;3.37;62.96;100509.94;5406854;32;33423;-82
2021/12/20 08:51:25;;;;;;;3.40;2.60;;;;;;;3.46;62.72;100534.09;5402623;32;33788;-83
2021/12/20 08:54:29;;;;;;;3.45;2.25;;;;;;;3.42;62.25;100544.12;5410307;32;33642;-83
2021/12/20 08:57:32;;;;;;;3.75;2.53;;;;;;;3.48;62.16;100554.28;5408022;32;33826;-83
2021/12/20 09:00:36;;;;;;;4.97;2.75;;;;;;;3.54;61.98;100536.94;5416245;32;33984;-82
2021/12/20 09:03:39;;;;;;;3.95;2.92;;;;;;;3.47;63.10;100530.44;5408061;32;32936;-82
2021/12/20 09:06:43;;;;;;;4.20;2.60;;;;;;;3.48;63.72;100533.00;5401817;32;33870;-82
2021/12/20 09:09:47;;;;;;;5.57;2.75;;;;;;;3.51;63.58;100526.53;5399929;32;33527;-82
2021/12/20 09:12:50;;;;;;;4.90;2.92;;;;;;;3.61;63.50;100517.66;5410485;32;34479;-82
2021/12/20 09:15:58;;;;;;;3.25;2.92;;;;;;;3.62;63.54;100513.19;5418057;32;33184;-83
2021/12/20 09:19:02;;;;;;;4.78;2.65;;;;;;;3.52;63.98;100510.47;5408045;32;33021;-83
2021/12/20 09:22:06;;;;;;;3.10;2.50;;;;;;;3.49;64.57;100502.75;5407042;32;33821;-83
2021/12/20 09:25:09;;;;;;;7.03;2.70;;;;;;;3.50;64.00;100504.41;5408924;32;33561;-82
2021/12/20 09:28:13;;;;;;;5.50;2.67;;;;;;;3.47;64.12;100494.03;5411841;32;33129;-82
2021/12/20 09:31:16;;;;;;;6.75;2.65;;;;;;;3.41;64.56;100479.41;5402820;32;34462;-82
2021/12/20 09:34:19;;;;;;;4.32;2.60;;;;;;;3.48;63.52;100482.44;5402536;32;32950;-82
2021/12/20 09:37:21;;;;;;;5.82;3.17;;;;;;;3.47;63.25;100472.75;5397820;32;33366;-83
2021/12/20 09:40:33;;;;;;;6.05;2.40;;;;;;;3.45;63.44;100474.66;5396857;33;33793;-82
2021/12/20 09:43:42;;;;;;;4.95;2.53;;;;;;;3.50;63.25;100472.47;5408444;32;33891;-82
2021/12/20 09:46:44;;;;;;;2.80;2.53;;;;;;;3.60;63.15;100472.56;5399131;32;33972;-87
2021/12/20 09:49:47;;;;;;;4.28;2.60;;;;;;;3.66;62.64;100468.50;5403564;32;33116;-87
2021/12/20 09:52:50;;;;;;;3.78;2.72;;;;;;;3.61;62.92;100467.09;5418814;32;33750;-86
2021/12/20 09:55:54;;;;;;;4.40;2.50;;;;;;;3.61;62.54;100459.09;5402705;32;163236;-87
2021/12/20 09:59:00;;;;;;;5.87;2.40;;;;;;;3.62;62.74;100441.31;5416182;32;33489;-83
2021/12/20 10:02:07;;;;;;;4.18;2.62;;;;;;;3.61;63.29;100448.44;5417735;32;33277;-83
2021/12/20 10:05:14;;;;;;;3.37;2.50;;;;;;;3.67;63.17;100471.06;5408272;32;33131;-82
2021/12/20 10:08:20;;;;;;;8.07;2.60;;;;;;;3.65;63.08;100473.00;5419020;32;33317;-83
2021/12/20 10:11:29;;;;;;;2.87;2.12;;;;;;;3.69;62.53;100484.25;5407429;32;33065;-83
2021/12/20 10:14:55;;;;;;;4.87;2.50;;;;;;;3.74;61.93;100485.50;5406328;32;34060;-82
2021/12/20 10:17:59;;;;;;;2.20;1.90;;;;;;;3.83;62.05;100494.53;5405576;32;33429;-82
2021/12/20 10:21:03;;;;;;;4.22;2.17;;;;;;;3.87;60.80;100490.66;5409829;32;33417;-83
2021/12/20 10:24:06;;;;;;;2.70;2.03;;;;;;;3.98;60.52;100487.03;5402061;32;34001;-82
2021/12/20 10:27:35;;;;;;;5.75;2.10;;;;;;;3.81;59.73;100478.69;5411023;32;34713;-83
2021/12/20 10:30:42;;;;;;;4.55;2.42;;;;;;;3.87;60.00;100466.69;5405104;32;33113;-83
2021/12/20 10:33:58;;;;;;;3.00;2.20;;;;;;;3.79;59.83;100466.50;5403077;32;33704;-83
2021/12/20 10:37:04;;;;;;;3.50;2.35;;;;;;;3.90;60.68;100482.41;5406835;32;33245;-82
2021/12/20 10:40:08;;;;;;;3.97;2.28;;;;;;;3.94;60.76;100488.28;5412293;32;33380;-83
2021/12/20 10:43:14;;;;;;;3.00;2.40;;;;;;;4.02;60.20;100497.31;5414660;32;33548;-83
2021/12/20 10:46:24;;;;;;;3.15;2.00;;;;;;;4.09;60.19;100503.81;5406205;32;33111;-82
2021/12/20 10:49:29;;;;;;;3.03;1.90;;;;;;;3.98;60.37;100500.34;5402301;32;33439;-82
2021/12/20 10:52:32;;;;;;;2.47;1.90;;;;;;;4.14;59.95;100507.87;5411392;32;34697;-87
2021/12/20 10:55:44;;;;;;;4.35;2.40;;;;;;;4.12;60.07;100516.00;5404814;32;33957;-87
2021/12/20 10:58:51;;;;;;;3.53;2.55;;;;;;;4.29;59.29;100511.87;5396315;32;34071;-83
2021/12/20 11:05:20;;;;;;;3.67;2.25;;;;;;;4.31;58.67;100512.59;5401830;32;33401;-83
2021/12/20 11:11:56;;;;;;;7.68;2.70;;;;;;;4.31;59.14;100484.13;5417918;32;33344;-83
2021/12/20 11:15:03;;;;;;;2.70;2.12;;;;;;;4.32;60.45;100482.28;5402269;32;33154;-83
2021/12/20 11:18:16;;;;;;;5.32;2.67;;;;;;;4.31;59.67;100477.94;5405295;32;34425;-82
2021/12/20 11:21:20;;;;;;;5.95;2.25;;;;;;;4.43;61.14;100476.84;5406331;32;33224;-83
2021/12/20 11:24:44;;;;;;;4.20;2.40;;;;;;;4.59;60.17;100475.47;5404157;32;34818;-83
2021/12/20 11:27:53;;;;;;;4.18;2.00;;;;;;;4.59;58.63;100481.66;5414665;32;34378;-82
2021/12/20 11:30:57;;;;;;;5.18;2.50;;;;;;;4.64;58.25;100483.94;5411917;32;34857;-82
2021/12/20 11:34:00;;;;;;;7.90;2.40;;;;;;;4.71;58.20;100480.59;5408708;32;33077;-82
2021/12/20 11:37:04;;;;;;;2.33;2.12;;;;;;;5.04;58.46;100491.84;5412522;32;33831;-82
2021/12/20 11:40:10;;;;;;;4.28;1.80;;;;;;;4.97;57.44;100490.72;5411861;32;34893;-82
2021/12/20 11:43:13;;;;;;;3.80;2.15;;;;;;;5.03;55.94;100486.62;5419817;32;33674;-82
2021/12/20 11:46:16;;;;;;;2.28;2.08;;;;;;;5.18;55.43;100494.09;5419828;32;33791;-82
2021/12/20 11:49:24;;;;;;;2.50;2.15;;;;;;;5.37;53.82;100479.06;5414580;32;34080;-86
2021/12/20 11:52:38;;;;;;;3.12;1.65;;;;;;;5.52;53.55;100506.16;5417209;32;33524;-85
2021/12/20 11:55:50;;;;;;;3.72;2.15;;;;;;;5.72;53.29;100499.81;5408795;32;33796;-83
2021/12/20 11:58:54;;;;;;;2.97;2.00;;;;;;;5.86;54.07;100502.03;5412948;32;32174;-83
2021/12/20 12:02:43;;;;;;;1.90;1.80;;;;;;;6.26;52.65;100505.44;5419451;32;33166;-83
2021/12/20 12:05:46;;;;;;;3.47;2.17;;;;;;;6.69;51.71;100506.66;5360385;33;32699;-82
2021/12/20 12:08:49;;;;;;;2.87;2.00;;;;;;;6.68;51.30;100505.81;5380510;32;33796;-82
2021/12/20 12:11:52;;;;;;;3.65;2.17;;;;;;;6.47;51.88;100514.09;5414503;32;34403;-83
2021/12/20 12:15:05;;;;;;;3.33;1.98;;;;;;;6.69;50.63;100506.66;5418536;32;33545;-83
2021/12/20 12:18:10;;;;;;;2.50;1.80;;;;;;;7.00;48.63;100512.53;5432580;32;34259;-83
2021/12/20 12:21:31;;;;;;;3.22;1.87;;;;;;;7.01;48.98;100512.38;5406535;32;33712;-81
2021/12/20 12:24:50;;;;;;;2.10;1.62;;;;;;;7.46;47.64;100506.13;5413104;32;34399;-81
2021/12/20 12:27:58;;;;;;;2.35;1.75;;;;;;;8.09;45.14;100521.13;5412594;32;33493;-81
2021/12/20 12:31:06;;;;;;;5.47;1.85;;;;;;;8.65;44.68;100515.41;5398378;32;34953;-81
2021/12/20 12:34:10;;;;;;;2.53;1.62;;;;;;;8.80;43.36;100522.69;5411663;32;33230;-85
2021/12/20 12:37:25;;;;;;;1.92;1.80;;;;;;;9.71;41.43;100521.81;5418645;32;33511;-85
2021/12/20 12:40:29;;;;;;;1.70;1.60;;;;;;;11.23;37.71;100534.28;5432652;32;33390;-81
2021/12/20 12:43:46;;;;;;;3.47;1.30;;;;;;;11.08;38.07;100542.28;5429166;32;33049;-81
2021/12/20 12:46:53;;;;;;;2.45;1.50;;;;;;;12.17;35.54;100534.88;5412258;32;33996;-81
2021/12/20 12:49:57;;;;;;;3.62;1.25;;;;;;;11.99;35.70;100542.47;5415187;32;34305;-81
2021/12/20 12:52:59;;;;;;;2.33;1.52;;;;;;;12.81;34.96;100541.56;5397507;32;33729;-81
2021/12/20 12:56:24;;;;;;;4.95;1.45;;;;;;;12.19;35.16;100537.38;5401728;32;34200;-81
2021/12/20 12:59:27;;;;;;;3.25;1.67;;;;;;;10.98;36.96;100547.06;5412271;32;33195;-81
2021/12/20 13:02:51;;;;;;;2.70;1.73;;;;;;;9.91;38.66;100551.03;5415552;32;33516;-80
2021/12/20 13:05:54;;;;;;;5.78;1.40;;;;;;;8.04;42.87;100555.63;5419137;32;33908;-81
2021/12/20 13:09:00;;;;;;;3.47;1.80;;;;;;;6.57;45.90;100572.91;5431195;32;33031;-81
2021/12/20 13:12:23;;;;;;;1.95;1.62;;;;;;;6.02;48.10;100575.44;5407209;32;34111;-81
2021/12/20 13:15:34;;;;;;;2.03;1.75;;;;;;;5.67;50.49;100580.41;5405998;32;33354;-81
2021/12/20 13:18:39;;;;;;;4.35;1.75;;;;;;;5.22;52.26;100580.91;5406620;32;34018;-81
2021/12/20 13:21:57;;;;;;;7.15;1.50;;;;;;;4.94;53.06;100579.91;5409144;32;33280;-81
2021/12/20 13:25:00;;;;;;;1.98;1.67;;;;;;;4.86;52.88;100590.41;5409160;32;34446;-85
2021/12/20 13:28:06;;;;;;;4.28;1.87;;;;;;;4.57;53.67;100579.63;5409596;32;34092;-85
2021/12/20 13:31:15;;;;;;;3.75;1.95;;;;;;;4.48;54.14;100589.25;5424406;32;34599;-82
2021/12/20 13:34:20;;;;;;;2.10;1.90;;;;;;;4.41;54.03;100592.59;5433782;32;33587;-81
2021/12/20 13:37:31;;;;;;;3.80;2.22;;;;;;;4.32;54.40;100596.87;5432876;32;34853;-81
2021/12/20 13:40:52;;;;;;;4.80;1.98;;;;;;;4.01;56.15;100596.87;5425554;32;33817;-81
2021/12/20 13:44:02;;;;;;;2.35;1.85;;;;;;;4.11;56.67;100598.72;5404464;32;33941;-81
2021/12/20 13:47:16;;;;;;;2.10;1.90;;;;;;;3.96;56.47;100604.38;5415107;32;33717;-81
2021/12/20 13:50:20;;;;;;;2.12;1.70;;;;;;;3.93;57.21;100611.81;5410644;32;30465;-81
2021/12/20 13:53:31;;;;;;;3.70;1.90;;;;;;;3.95;57.66;100609.84;5411497;32;33378;-81
2021/12/20 13:56:33;;;;;;;6.93;1.90;;;;;;;3.86;57.46;100614.97;5409888;32;32536;-81
2021/12/20 14:00:15;;;;;;;2.87;1.90;;;;;;;3.64;58.31;100625.72;5407390;32;34202;-81
2021/12/20 14:03:18;;;;;;;2.58;1.75;;;;;;;3.64;58.85;100633.72;5414721;32;34383;-81
2021/12/20 14:06:39;;;;;;;3.90;1.85;;;;;;;3.59;59.35;100625.25;5423949;32;34294;-80
2021/12/20 14:10:11;;;;;;;3.28;2.25;;;;;;;3.59;59.62;100635.91;5424362;32;33504;-80
2021/12/20 14:13:19;;;;;;;2.55;2.00;;;;;;;3.49;60.20;100643.81;5405039;32;33860;-82
2021/12/20 14:16:22;;;;;;;3.05;2.17;;;;;;;3.44;60.19;100642.50;5406417;33;33704;-81
2021/12/20 14:19:58;;;;;;;3.12;2.03;;;;;;;3.47;61.23;100643.06;5414103;32;34975;-82
2021/12/20 14:23:01;;;;;;;3.70;2.45;;;;;;;3.37;61.06;100639.50;5413240;32;33877;-82
2021/12/20 14:26:11;;;;;;;4.07;1.98;;;;;;;3.28;61.30;100633.09;5414440;33;34873;-82
2021/12/20 14:29:16;;;;;;;2.55;2.10;;;;;;;3.25;60.27;100641.34;5402552;33;33847;-81
2021/12/20 14:32:41;;;;;;;2.15;1.75;;;;;;;3.20;60.55;100642.66;5401534;32;33493;-82
2021/12/20 14:35:51;;;;;;;3.85;2.25;;;;;;;3.05;60.21;100640.28;5408161;32;33433;-82
2021/12/20 14:38:56;;;;;;;2.95;2.20;;;;;;;3.03;61.54;100639.53;5409316;32;34162;-82
2021/12/20 14:42:01;;;;;;;2.28;1.80;;;;;;;3.03;61.15;100633.37;5407299;32;34268;-82
2021/12/20 14:45:19;;;;;;;2.30;2.10;;;;;;;3.02;62.33;100629.03;5413128;32;32953;-82
2021/12/20 14:48:29;;;;;;;4.00;2.70;;;;;;;2.88;61.67;100628.31;5404036;32;33871;-82
2021/12/20 14:51:32;;;;;;;2.78;2.53;;;;;;;2.76;62.70;100634.63;5403178;32;33116;-81
2021/12/20 14:54:51;;;;;;;4.62;2.47;;;;;;;2.66;63.56;100637.16;5398372;32;33502;-84
2021/12/20 14:57:54;;;;;;;3.37;2.35;;;;;;;2.63;63.81;100631.22;5401263;32;33387;-82
2021/12/20 15:00:57;;;;;;;7.12;2.60;;;;;;;2.54;64.51;100639.91;5399481;32;33429;-82
2021/12/20 15:04:00;;;;;;;3.37;2.50;;;;;;;2.44;65.63;100637.13;5397269;32;34018;-82
2021/12/20 15:07:05;;;;;;;3.05;2.50;;;;;;;2.38;66.09;100627.81;5407061;32;34578;-82
2021/12/20 15:10:10;;;;;;;4.75;2.78;;;;;;;2.28;66.86;100642.78;5408132;32;33882;-82
2021/12/20 15:13:13;;;;;;;5.43;3.35;;;;;;;2.16;67.48;100630.44;5408115;32;33287;-81
2021/12/20 15:16:15;;;;;;;4.57;2.95;;;;;;;2.09;69.13;100635.38;5409385;32;33630;-81
2021/12/20 15:19:19;;;;;;;5.90;3.22;;;;;;;2.02;71.06;100632.34;5403237;32;34888;-82
2021/12/20 15:22:27;;;;;;;7.90;3.80;;;;;;;2.10;71.30;100631.75;5407302;32;34635;-82
2021/12/20 15:25:29;;;;;;;5.87;3.60;;;;;;;1.99;72.45;100632.59;5408732;32;32909;-81
2021/12/20 15:28:32;;;;;;;5.10;3.45;;;;;;;1.94;73.03;100639.22;5413925;32;33750;-81
2021/12/20 15:31:37;;;;;;;4.25;3.45;;;;;;;1.77;73.91;100635.16;5416117;32;34406;-81
2021/12/20 15:34:40;;;;;;;6.22;3.85;;;;;;;1.82;74.04;100638.31;5408076;32;33823;-81
2021/12/20 15:37:44;;;;;;;6.05;3.62;;;;;;;1.75;74.59;100643.22;5403188;32;32064;-81
2021/12/20 15:40:47;;;;;;;6.18;3.60;;;;;;;1.70;75.26;100650.69;5406256;32;33050;-81
2021/12/20 15:43:51;;;;;;;6.62;4.10;;;;;;;1.78;75.09;100644.81;5406517;32;33824;-81
2021/12/20 15:46:54;;;;;;;6.55;4.22;;;;;;;1.81;75.11;100655.19;5411430;32;34070;-81
2021/12/20 15:49:57;;;;;;;6.07;3.65;;;;;;;1.73;75.67;100655.78;5403316;32;34953;-80
2021/12/20 15:52:59;;;;;;;4.12;3.40;;;;;;;1.63;75.85;100653.91;5410021;32;33402;-81
2021/12/20 15:56:23;;;;;;;4.62;3.47;;;;;;;1.59;76.51;100655.97;5413604;32;33118;-81
2021/12/20 15:59:46;;;;;;;4.07;3.58;;;;;;;1.57;76.74;100668.47;5399514;32;33403;-81
2021/12/20 16:02:48;;;;;;;4.32;3.65;;;;;;;1.57;77.07;100658.72;5409626;32;34364;-81
2021/12/20 16:05:53;;;;;;;6.32;3.80;;;;;;;1.50;77.32;100661.94;5405068;32;33416;-80
2021/12/20 16:08:55;;;;;;;7.22;3.87;;;;;;;1.42;77.89;100659.00;5416824;32;33263;-80
2021/12/20 16:11:58;;;;;;;5.68;4.25;;;;;;;1.43;77.75;100661.53;5414432;32;34792;-81
2021/12/20 16:15:01;;;;;;;6.57;3.92;;;;;;;1.42;77.83;100664.31;5411470;32;33228;-81
2021/12/20 16:18:06;;;;;;;5.00;4.12;;;;;;;1.41;77.63;100675.88;5411833;32;34502;-81
2021/12/20 16:21:09;;;;;;;8.65;4.18;;;;;;;1.47;77.13;100672.78;5410826;32;34283;-81
2021/12/20 16:24:12;;;;;;;5.07;3.50;;;;;;;1.42;77.28;100659.84;5405793;32;34834;-80
2021/12/20 16:27:15;;;;;;;7.80;3.78;;;;;;;1.41;76.96;100666.12;5407896;32;33933;-82
2021/12/20 16:30:24;;;;;;;5.28;4.20;;;;;;;1.41;76.87;100668.78;5402235;32;33232;-86
2021/12/20 16:33:32;;;;;;;8.55;4.20;;;;;;;1.42;76.64;100667.81;5398002;32;33708;-86
2021/12/20 16:36:35;;;;;;;6.35;4.20;;;;;;;1.39;76.44;100675.97;5410303;32;35059;-82
2021/12/20 16:39:38;;;;;;;6.75;4.00;;;;;;;1.34;77.24;100680.75;5417347;32;33322;-82
